Terminal Aerodrome Forecast
Issued by NWS

Home | Current Version | Previous Version | Text Only | Print | Product List | Glossary On
Versions: 1 2 3 4 5 6 7 8 9 10 11 12 13 14 15 16 17 18
537
FTUS46 KSEW 231726
TAFCLM
TAF
KCLM 231726Z 2318/2418 32013KT P6SM SCT050
     FM240200 29010KT P6SM SKC
     FM240900 27005KT P6SM VCFG SCT009
      TEMPO 2411/2415 BKN009=

USA.gov is the U.S. government's official web portal to all federal, state and local government web resources and services.